createdAt,value
2023-01-11T00:03:12.533Z,91.48
2023-01-11T00:18:55.755Z,91.05
2023-01-11T00:34:38.284Z,90.92
2023-01-11T00:50:21.413Z,90.45
2023-01-11T01:06:03.814Z,90.44
2023-01-11T01:21:46.795Z,89.38
2023-01-11T01:37:29.388Z,89.19
2023-01-11T01:53:11.905Z,88.22
2023-01-11T02:08:54.836Z,86.76
2023-01-11T02:24:37.221Z,85.59
2023-01-11T02:40:20.180Z,84.49
2023-01-11T02:56:03.276Z,83.89
2023-01-11T03:11:45.594Z,83.51
2023-01-11T03:27:28.210Z,83.53
2023-01-11T03:43:10.814Z,83.5
2023-01-11T03:58:54.098Z,82.63
2023-01-11T04:14:37.308Z,82.65
2023-01-11T04:30:20.114Z,82.64
2023-01-11T04:46:02.526Z,83.14
2023-01-11T05:01:44.893Z,83.33
2023-01-11T05:17:27.372Z,84.05
2023-01-11T05:33:09.664Z,84.68
2023-01-11T05:48:52.018Z,84.07
2023-01-11T06:04:34.587Z,84.92
2023-01-11T06:20:17.244Z,84.96
2023-01-11T06:36:00.397Z,85.37
2023-01-11T06:51:43.716Z,85.15
2023-01-11T07:07:26.674Z,84.38
2023-01-11T07:23:09.794Z,85.13
2023-01-11T07:38:52.578Z,85.61
2023-01-11T07:54:35.579Z,86.73
2023-01-11T08:10:17.860Z,87.47
2023-01-11T08:26:01.008Z,87.64
2023-01-11T08:41:43.833Z,87.43
2023-01-11T08:57:26.007Z,87.24
2023-01-11T09:13:08.815Z,87.08
2023-01-11T09:28:51.202Z,86.95
2023-01-11T09:44:34.109Z,86.2
2023-01-11T10:00:17.131Z,86.73
2023-01-11T10:18:21.553Z,86.65
2023-01-11T10:31:42.105Z,88.6
2023-01-11T10:47:25.406Z,94.3
2023-01-11T10:48:12.765Z,94.32
2023-01-11T11:03:55.305Z,100
2023-01-11T11:19:37.712Z,100
2023-01-11T11:35:20.336Z,100
2023-01-11T11:51:03.697Z,100
2023-01-11T12:06:46.515Z,100
2023-01-11T12:22:29.257Z,100
2023-01-11T12:38:12.264Z,100
2023-01-11T12:53:55.198Z,100
2023-01-11T13:09:38.225Z,100
2023-01-11T13:25:20.930Z,100
2023-01-11T13:41:03.563Z,100
2023-01-11T13:56:46.503Z,100
2023-01-11T14:12:28.803Z,100
2023-01-11T14:28:11.139Z,100
2023-01-11T14:43:53.724Z,100
2023-01-11T14:59:36.434Z,100
2023-01-11T15:15:18.711Z,100
2023-01-11T15:31:01.777Z,100
2023-01-11T15:46:44.855Z,100
2023-01-11T16:02:27.288Z,100
2023-01-11T16:18:10.276Z,100
2023-01-11T16:33:53.445Z,100
2023-01-11T16:49:36.297Z,100
2023-01-11T17:05:19.465Z,100
2023-01-11T17:21:02.620Z,100
2023-01-11T17:36:45.437Z,100
2023-01-11T17:52:28.168Z,100
2023-01-11T18:08:10.693Z,100
2023-01-11T18:23:53.030Z,100
2023-01-11T18:39:35.307Z,100
2023-01-11T18:55:17.599Z,100
2023-01-11T19:11:00.763Z,100
2023-01-11T19:26:43.886Z,100
2023-01-11T19:42:26.321Z,100
2023-01-11T19:58:09.132Z,100
2023-01-11T20:13:52.121Z,100
2023-01-11T20:29:35.388Z,100
2023-01-11T20:45:18.109Z,100
2023-01-11T21:01:00.992Z,100
2023-01-11T21:16:44.215Z,100
2023-01-11T21:32:26.485Z,100
2023-01-11T21:48:09.682Z,100
2023-01-11T22:03:52.841Z,100
2023-01-11T22:19:35.412Z,100
2023-01-11T22:35:17.837Z,100
2023-01-11T22:51:00.169Z,100
2023-01-11T23:06:42.748Z,100
2023-01-11T23:22:25.042Z,100
2023-01-11T23:38:07.337Z,100
2023-01-11T23:53:49.941Z,100
